Aeroporto :
LOGIN :

Iscrizione | Disclaimer

   EN    FR    IT 

 










Sommario :    VFR   VFR Marginale   IFR   IFR Intensivo   IFR Molto Intensivo
Visibilità : 
Base nubi : 
>= 8 km
>= 3000ft
5 / 8 km
1000 / 3000 ft
1500m / 5 km
500 / 1000 ft
800 / 1500m
200 / 500 ft
< 800m
< 200 ft
Simboli :   Temporali  Nebbia  Neve Forte  Precipitazioni Forti  Vento > 20 kt
SIGMETs :   Varie  Temporali  Ghiacco  Turbolenza  Onda orograficha  Ceneri Vulcaniche






- Altitudine del aeroporto : 65 ft
- Codice IATA : PIK


EGPK - Glasgow Prestwick

ULTIMO METAR :
  • 250150Z 12003KT 9999 FEW020 SCT045 07/06 Q1031

METARs OBSOLETI :
  • 250050Z 10002KT 9999 SCT048 08/06 Q1031
  • 242350Z 00000KT 9999 SCT048 10/08 Q1031

TAF TAF EGPK
Valido dal 25 a 00 ore il 26 a 00 ore UTC


242257Z 2500/2524 11005KT 9999 SCT040
PROB30 2500/2506 8000
BECMG 2508/2511 22010KT
PROB30
TEMPO 2512/2520 20015G25KT
TEMPO 2517/2524 6000 RA



MetMap, La meteo Aeronautica in un colpo d'occhio ! - Copyright ORBIFLY Dicembre 2007 - Disclaimer

ORBIFLY MET'MAP TEAM :

Programmazione e sviluppo : Alexandra Zaïnal
Concezione : Baudouin d'Aumeries
Aiuto per la programmazione : Marc-Olivier Méhu
Supporto tecnico e logistico : Manuel Goepfert
Aiuto per la traduzione : Arnaldo La Scala

Contatto : metmap@orbifly.com




FONTI E CREDITI :

   NOAA